createdAt,value
2022-12-11T00:06:29.717Z,97805.91
2022-12-11T00:09:17.428Z,97797.56
2022-12-11T00:11:46.759Z,97783.37
2022-12-11T00:14:50.566Z,97782.25
2022-12-11T00:22:35.208Z,97794.75
2022-12-11T00:25:01.784Z,97791.16
2022-12-11T00:37:55.988Z,97787.78
2022-12-11T00:40:27.057Z,97781.84
2022-12-11T00:42:53.708Z,97776.37
2022-12-11T00:49:13.625Z,97779.25
2022-12-11T00:51:40.659Z,97796.53
2022-12-11T00:54:19.075Z,97788.28
2022-12-11T00:56:54.460Z,97792.81
2022-12-11T01:10:24.968Z,97789.56
2022-12-11T01:12:55.957Z,97802.59
2022-12-11T01:16:18.703Z,97805.13
2022-12-11T01:19:03.418Z,97811.88
2022-12-11T01:21:35.626Z,97811.22
2022-12-11T01:24:22.093Z,97803.22
2022-12-11T01:29:37.646Z,97820.75
2022-12-11T01:32:16.911Z,97822.19
2022-12-11T01:37:18.747Z,97831.22
2022-12-11T01:39:48.358Z,97827.94
2022-12-11T01:56:20.744Z,97834.44
2022-12-11T01:58:52.365Z,97828.09
2022-12-11T02:01:27.365Z,97819.34
2022-12-11T02:04:11.268Z,97822.59
2022-12-11T02:06:50.536Z,97824.09
2022-12-11T02:09:20.202Z,97840.22
2022-12-11T02:12:24.750Z,97802.91
2022-12-11T02:15:17.760Z,97817.62
2022-12-11T02:20:30.657Z,97828.50
2022-12-11T02:25:54.151Z,97805.81
2022-12-11T02:29:08.177Z,97803.63
2022-12-11T02:32:02.875Z,97810.84
2022-12-11T02:35:00.303Z,97813.37
2022-12-11T02:37:29.523Z,97807.19
2022-12-11T02:39:57.165Z,97800.81
2022-12-11T02:42:29.808Z,97790.09
2022-12-11T02:45:46.728Z,97791.75
2022-12-11T02:48:42.128Z,97794.81
2022-12-11T02:51:10.431Z,97797.28
2022-12-11T02:53:41.525Z,97794.28
2022-12-11T02:56:24.647Z,97790.13
2022-12-11T02:59:03.089Z,97786.88
2022-12-11T03:07:12.221Z,97788.97
2022-12-11T03:09:44.583Z,97781.63
2022-12-11T03:12:24.504Z,97784.50
2022-12-11T03:14:51.340Z,97788.47
2022-12-11T03:17:30.079Z,97783.37
2022-12-11T03:25:40.292Z,97794.62
2022-12-11T03:28:21.830Z,97791.44
2022-12-11T03:30:51.788Z,97799.84
2022-12-11T03:33:45.744Z,97789.72
2022-12-11T03:36:24.169Z,97793.84
2022-12-11T03:38:58.684Z,97789.69
2022-12-11T03:41:28.751Z,97778.69
2022-12-11T03:43:59.184Z,97789.19
2022-12-11T03:46:31.939Z,97792.19
2022-12-11T03:51:35.768Z,97790.59
2022-12-11T03:54:04.267Z,97798.44
2022-12-11T04:15:43.700Z,97811.44
2022-12-11T04:18:29.268Z,97814.19
2022-12-11T04:21:15.318Z,97800.25
2022-12-11T04:24:17.506Z,97811.53
2022-12-11T04:26:46.675Z,97825.00
2022-12-11T04:29:14.376Z,97832.81
2022-12-11T04:31:40.942Z,97831.97
2022-12-11T04:34:07.508Z,97828.22
2022-12-11T04:36:34.040Z,97829.50
2022-12-11T04:39:00.649Z,97839.81
2022-12-11T04:41:27.273Z,97827.75
2022-12-11T04:43:54.439Z,97842.78
2022-12-11T04:46:23.197Z,97848.16
2022-12-11T04:49:09.595Z,97862.72
2022-12-11T04:51:36.177Z,97868.25
2022-12-11T04:54:02.736Z,97869.34
2022-12-11T04:56:29.412Z,97874.75
2022-12-11T04:59:31.424Z,97870.75
2022-12-11T05:02:22.233Z,97875.56
2022-12-11T05:36:23.259Z,97898.44
2022-12-11T05:38:50.919Z,97915.34
2022-12-11T05:41:20.888Z,97901.62
2022-12-11T05:46:25.706Z,97907.53
2022-12-11T05:48:56.267Z,97914.59
2022-12-11T05:51:23.832Z,97908.66
2022-12-11T05:54:12.339Z,97907.31
2022-12-11T05:56:39.036Z,97905.94
2022-12-11T05:59:07.625Z,97908.09
2022-12-11T06:01:40.145Z,97917.72
2022-12-11T06:04:09.229Z,97928.53
2022-12-11T06:06:36.510Z,97929.56
2022-12-11T06:09:05.425Z,97931.78
2022-12-11T06:11:34.265Z,97934.22
2022-12-11T06:27:44.692Z,97984.72
2022-12-11T06:30:11.984Z,97974.78
2022-12-11T06:32:38.577Z,97995.22
2022-12-11T06:35:05.799Z,97993.59
2022-12-11T06:37:32.578Z,97988.75
2022-12-11T06:39:59.234Z,97996.00
2022-12-11T06:42:25.821Z,98000.03
2022-12-11T06:44:57.491Z,98010.00
2022-12-11T06:47:24.094Z,98000.59
2022-12-11T06:49:50.640Z,98004.91
2022-12-11T06:52:18.759Z,98010.25
2022-12-11T06:54:46.116Z,98021.81
2022-12-11T06:57:12.752Z,98019.13
2022-12-11T06:59:39.370Z,98019.94
2022-12-11T07:02:05.996Z,98009.16
2022-12-11T07:04:37.384Z,98010.81
2022-12-11T07:07:04.233Z,98012.16
2022-12-11T07:09:30.813Z,97999.78
2022-12-11T07:11:57.713Z,98015.38
2022-12-11T07:49:29.767Z,98039.56
2022-12-11T07:51:56.428Z,98044.41
2022-12-11T07:54:23.016Z,98057.59
2022-12-11T07:56:53.390Z,98063.25
2022-12-11T07:59:21.066Z,98063.50
2022-12-11T08:04:33.972Z,98071.28
2022-12-11T08:18:09.866Z,98151.50
2022-12-11T08:20:39.038Z,98157.66
2022-12-11T08:23:06.714Z,98162.25
2022-12-11T08:25:33.329Z,98159.28
2022-12-11T08:28:03.179Z,98149.87
2022-12-11T08:30:40.147Z,98155.81
2022-12-11T08:33:08.319Z,98161.16
2022-12-11T08:35:50.357Z,98164.16
2022-12-11T08:38:25.882Z,98168.44
2022-12-11T08:46:16.217Z,98178.13
2022-12-11T08:48:43.460Z,98180.56
2022-12-11T08:51:19.957Z,98196.97
2022-12-11T08:53:46.649Z,98196.44
2022-12-11T08:56:15.292Z,98183.50
2022-12-11T08:58:42.846Z,98190.78
2022-12-11T09:01:24.918Z,98191.31
2022-12-11T09:17:15.968Z,98198.56
2022-12-11T09:19:42.612Z,98190.78
2022-12-11T09:24:44.442Z,98199.12
2022-12-11T09:27:11.042Z,98218.78
2022-12-11T09:45:57.369Z,98207.75
2022-12-11T09:48:26.335Z,98202.09
2022-12-11T09:50:55.125Z,98204.00
2022-12-11T09:53:27.024Z,98209.63
2022-12-11T09:56:04.625Z,98201.28
2022-12-11T09:58:37.166Z,98201.03
2022-12-11T10:03:52.342Z,98191.28
2022-12-11T10:17:47.632Z,98201.00
2022-12-11T10:20:36.971Z,98202.84
2022-12-11T10:23:06.864Z,98204.91
2022-12-11T10:25:41.130Z,98212.25
2022-12-11T10:28:16.095Z,98234.84
2022-12-11T10:31:11.030Z,98220.91
2022-12-11T10:34:01.680Z,98212.25
2022-12-11T10:36:33.244Z,98209.78
2022-12-11T10:39:02.295Z,98224.41
2022-12-11T10:41:41.889Z,98211.75
2022-12-11T10:44:21.734Z,98222.25
2022-12-11T10:47:09.501Z,98225.22
2022-12-11T10:52:19.918Z,98241.16
2022-12-11T10:54:54.852Z,98227.94
2022-12-11T10:57:31.416Z,98239.53
2022-12-11T11:11:01.967Z,98236.84
2022-12-11T11:13:38.856Z,98231.69
2022-12-11T11:16:12.243Z,98221.75
2022-12-11T11:18:41.836Z,98219.34
2022-12-11T11:21:17.744Z,98213.97
2022-12-11T11:23:48.324Z,98206.69
2022-12-11T11:26:23.830Z,98206.16
2022-12-11T11:28:56.566Z,98214.19
2022-12-11T11:47:19.989Z,98245.75
2022-12-11T11:49:58.512Z,98238.19
2022-12-11T11:52:32.345Z,98239.50
2022-12-11T11:55:03.919Z,98234.94
2022-12-11T11:58:00.960Z,98245.72
2022-12-11T12:00:33.585Z,98253.81
2022-12-11T12:03:09.498Z,98259.47
2022-12-11T12:05:57.700Z,98251.12
2022-12-11T12:08:49.050Z,98266.19
2022-12-11T12:11:53.091Z,98273.75
2022-12-11T12:14:52.059Z,98273.16
2022-12-11T12:17:45.700Z,98280.72
2022-12-11T12:20:27.813Z,98277.50
2022-12-11T12:23:11.476Z,98283.97
2022-12-11T12:25:48.387Z,98286.94
2022-12-11T12:28:33.937Z,98273.19
2022-12-11T12:31:23.197Z,98269.16
2022-12-11T12:34:20.944Z,98272.09
2022-12-11T12:37:00.549Z,98272.41
2022-12-11T12:39:39.153Z,98273.22
2022-12-11T12:42:29.937Z,98262.16
2022-12-11T12:45:05.592Z,98280.19
2022-12-11T13:05:19.773Z,98354.81
2022-12-11T13:08:06.002Z,98362.91
2022-12-11T13:10:36.212Z,98342.19
2022-12-11T13:13:05.479Z,98345.94
2022-12-11T13:15:42.896Z,98357.50
2022-12-11T13:18:33.476Z,98365.62
2022-12-11T13:21:00.632Z,98372.88
2022-12-11T13:23:32.847Z,98375.25
2022-12-11T13:26:04.784Z,98383.94
2022-12-11T13:34:33.753Z,98376.94
2022-12-11T13:37:05.557Z,98375.31
2022-12-11T13:39:35.543Z,98382.34
2022-12-11T13:42:05.624Z,98386.91
2022-12-11T13:44:40.526Z,98392.59
2022-12-11T14:04:21.171Z,98417.13
2022-12-11T14:07:04.723Z,98417.09
2022-12-11T14:09:32.258Z,98428.16
2022-12-11T14:11:59.431Z,98427.59
2022-12-11T14:14:44.995Z,98424.63
2022-12-11T14:23:08.601Z,98442.12
2022-12-11T14:25:35.686Z,98449.56
2022-12-11T14:50:03.127Z,98476.13
2022-12-11T14:52:45.991Z,98489.78
2022-12-11T14:55:21.944Z,98488.16
2022-12-11T14:57:50.886Z,98482.88
2022-12-11T15:00:29.771Z,98490.31
2022-12-11T15:03:23.653Z,98497.13
2022-12-11T15:05:54.132Z,98488.62
2022-12-11T15:08:33.045Z,98504.91
2022-12-11T15:13:51.511Z,98501.06
2022-12-11T15:16:21.725Z,98504.72
2022-12-11T15:18:50.727Z,98502.97
2022-12-11T15:21:19.059Z,98506.22
2022-12-11T15:24:00.754Z,98506.09
2022-12-11T15:26:44.142Z,98511.47
2022-12-11T15:29:43.242Z,98511.00
2022-12-11T15:32:14.121Z,98513.97
2022-12-11T15:34:55.216Z,98518.25
2022-12-11T15:37:40.161Z,98509.59
2022-12-11T15:50:40.827Z,98525.62
2022-12-11T15:53:07.537Z,98515.03
2022-12-11T15:55:34.935Z,98508.91
2022-12-11T15:58:05.948Z,98516.25
2022-12-11T16:00:32.916Z,98523.19
2022-12-11T16:22:20.861Z,98549.91
2022-12-11T16:24:48.088Z,98548.97
2022-12-11T16:27:18.607Z,98543.19
2022-12-11T16:29:50.442Z,98544.97
2022-12-11T16:32:51.342Z,98545.47
2022-12-11T16:35:23.796Z,98548.03
2022-12-11T16:37:59.902Z,98547.50
2022-12-11T16:40:41.999Z,98553.69
2022-12-11T16:43:21.510Z,98559.34
2022-12-11T16:49:05.470Z,98566.38
2022-12-11T17:01:56.208Z,98553.63
2022-12-11T17:04:22.782Z,98562.28
2022-12-11T17:06:51.144Z,98564.06
2022-12-11T17:09:17.694Z,98562.63
2022-12-11T17:11:44.625Z,98558.00
2022-12-11T17:14:12.574Z,98559.94
2022-12-11T17:16:39.235Z,98560.94
2022-12-11T17:22:15.242Z,98560.59
2022-12-11T17:25:11.160Z,98560.28
2022-12-11T17:27:45.815Z,98563.44
2022-12-11T17:33:29.405Z,98566.44
2022-12-11T17:49:34.582Z,98561.56
2022-12-11T17:52:03.234Z,98563.38
2022-12-11T17:54:32.337Z,98557.00
2022-12-11T17:57:00.325Z,98564.75
2022-12-11T17:59:26.998Z,98557.62
2022-12-11T18:01:53.762Z,98564.62
2022-12-11T18:26:31.384Z,98589.53
2022-12-11T18:28:58.023Z,98597.38
2022-12-11T18:31:24.751Z,98605.09
2022-12-11T18:33:52.677Z,98612.41
2022-12-11T18:36:20.554Z,98608.28
2022-12-11T18:38:48.243Z,98611.66
2022-12-11T18:41:19.953Z,98608.63
2022-12-11T18:43:47.102Z,98612.41
2022-12-11T18:46:16.824Z,98618.69
2022-12-11T18:49:24.684Z,98608.72
2022-12-11T18:52:00.479Z,98608.84
2022-12-11T18:57:34.647Z,98610.34
2022-12-11T19:00:15.115Z,98620.94
2022-12-11T19:03:13.864Z,98622.97
2022-12-11T19:05:44.845Z,98637.03
2022-12-11T19:08:13.834Z,98632.69
2022-12-11T19:10:45.113Z,98640.56
2022-12-11T19:13:12.140Z,98639.75
2022-12-11T19:15:43.238Z,98634.94
2022-12-11T19:18:10.837Z,98629.72
2022-12-11T19:38:06.046Z,98646.44
2022-12-11T19:40:32.644Z,98642.16
2022-12-11T19:42:59.226Z,98637.00
2022-12-11T19:45:25.828Z,98642.69
2022-12-11T19:47:52.569Z,98643.22
2022-12-11T20:21:09.422Z,98663.84
2022-12-11T20:23:40.602Z,98661.19
2022-12-11T20:26:13.394Z,98664.91
2022-12-11T20:28:40.610Z,98677.88
2022-12-11T20:31:18.262Z,98674.25
2022-12-11T20:33:47.088Z,98675.78
2022-12-11T20:36:33.230Z,98675.84
2022-12-11T20:53:32.042Z,98682.09
2022-12-11T20:55:59.059Z,98683.53
2022-12-11T20:58:29.980Z,98695.56
2022-12-11T21:00:57.441Z,98697.87
2022-12-11T21:03:24.463Z,98707.22
2022-12-11T21:05:51.008Z,98712.78
2022-12-11T21:08:21.900Z,98713.03
2022-12-11T21:10:48.667Z,98721.72
2022-12-11T21:13:16.750Z,98721.31
2022-12-11T21:15:44.091Z,98722.63
2022-12-11T21:18:10.680Z,98724.00
2022-12-11T21:38:05.921Z,98740.91
2022-12-11T21:40:32.554Z,98740.91
2022-12-11T21:42:59.218Z,98740.22
2022-12-11T21:45:59.407Z,98758.25
2022-12-11T22:13:32.992Z,98759.16
2022-12-11T22:46:58.860Z,98766.00
2022-12-11T22:54:55.887Z,98768.03
2022-12-11T23:17:25.944Z,98757.31
2022-12-11T23:19:52.573Z,98768.91
2022-12-11T23:22:19.142Z,98770.28
